Time,TemperatureF,DewpointF,PressureIn,WindDirection,WindDirectionDegrees,WindSpeedMPH,WindSpeedGustMPH,Humidity,HourlyPrecipIn,Conditions,Clouds,dailyrainin,SoftwareType,DateUTC
2013-09-20 00:04:00,57.9,51.4,29.86,WNW,298,4.0,11.0,79,0.00,,,-99.99,Weather View 32 v70,2013-09-20 05:04:00,
2013-09-20 00:09:00,57.6,51.4,29.86,NW,312,0.0,11.0,80,0.00,,,-99.99,Weather View 32 v70,2013-09-20 05:09:00,
2013-09-20 00:14:00,57.4,51.2,29.86,NW,318,5.0,11.0,80,0.00,,,-99.99,Weather View 32 v70,2013-09-20 05:14:00,
2013-09-20 00:24:00,57.4,51.9,29.86,NW,326,6.0,11.0,82,0.00,,,-99.99,Weather View 32 v70,2013-09-20 05:24:00,
2013-09-20 00:34:00,57.2,52.1,29.86,NW,306,3.0,11.0,83,0.00,,,-99.99,Weather View 32 v70,2013-09-20 05:34:00,
2013-09-20 00:44:00,57.0,52.5,29.86,North,0,3.0,11.0,85,0.00,,,-99.99,Weather View 32 v70,2013-09-20 05:44:00,
2013-09-20 00:49:00,57.0,52.9,29.86,NNW,341,3.0,11.0,86,0.00,,,-99.99,Weather View 32 v70,2013-09-20 05:49:00,
2013-09-20 00:57:00,57.0,53.2,29.86,North,0,0.0,9.0,87,0.00,,,-99.99,Weather View 32 v70,2013-09-20 05:57:00,
2013-09-20 01:04:00,57.2,54.0,29.86,North,0,0.0,9.0,89,0.00,,,-99.99,Weather View 32 v70,2013-09-20 06:04:00,
2013-09-20 01:14:00,57.4,54.5,29.86,North,0,0.0,9.0,90,0.04,,,-99.99,Weather View 32 v70,2013-09-20 06:14:00,
2013-09-20 01:24:00,57.6,54.9,29.86,NW,305,4.0,7.0,91,0.04,,,-99.99,Weather View 32 v70,2013-09-20 06:24:00,
2013-09-20 01:29:00,57.6,54.9,29.86,NNW,341,4.0,7.0,91,0.04,,,-99.99,Weather View 32 v70,2013-09-20 06:29:00,
2013-09-20 01:39:00,57.6,55.2,29.86,NNW,343,6.0,6.0,92,0.04,,,-99.99,Weather View 32 v70,2013-09-20 06:39:00,
2013-09-20 01:44:00,57.6,55.2,29.86,NW,319,4.0,7.0,92,0.04,,,-99.99,Weather View 32 v70,2013-09-20 06:44:00,
2013-09-20 01:54:00,57.6,55.2,29.86,NW,310,0.0,7.0,92,0.04,,,-99.99,Weather View 32 v70,2013-09-20 06:54:00,
2013-09-20 01:59:00,57.4,55.1,29.86,NW,311,0.0,7.0,92,0.04,,,-99.99,Weather View 32 v70,2013-09-20 06:59:00,
2013-09-20 02:09:00,57.4,54.8,29.86,NNW,331,4.0,7.0,91,0.00,,,-99.99,Weather View 32 v70,2013-09-20 07:09:00,
2013-09-20 02:19:00,57.2,54.6,29.86,NW,311,3.0,7.0,91,0.00,,,-99.99,Weather View 32 v70,2013-09-20 07:19:00,
2013-09-20 02:30:00,57.2,54.6,29.86,WNW,298,5.0,7.0,91,0.00,,,-99.99,Weather View 32 v70,2013-09-20 07:30:00,
2013-09-20 02:40:00,57.0,54.4,29.86,NW,312,6.0,8.0,91,0.00,,,-99.99,Weather View 32 v70,2013-09-20 07:40:00,
2013-09-20 02:45:00,56.8,54.2,29.86,WNW,301,4.0,8.0,91,0.00,,,-99.99,Weather View 32 v70,2013-09-20 07:45:00,
2013-09-20 02:50:00,56.7,53.8,29.86,NW,318,5.0,9.0,90,0.00,,,-99.99,Weather View 32 v70,2013-09-20 07:50:00,
2013-09-20 02:58:00,56.7,53.8,29.86,WNW,299,3.0,9.0,90,0.00,,,-99.99,Weather View 32 v70,2013-09-20 07:58:00,
2013-09-20 03:04:00,56.3,53.1,29.86,NW,325,7.0,9.0,89,0.00,,,-99.99,Weather View 32 v70,2013-09-20 08:04:00,
2013-09-20 03:14:00,55.9,52.4,29.89,NW,305,5.0,9.0,88,0.00,,,-99.99,Weather View 32 v70,2013-09-20 08:14:00,
2013-09-20 03:19:00,55.8,52.3,29.89,NW,321,5.0,9.0,88,0.00,,,-99.99,Weather View 32 v70,2013-09-20 08:19:00,
2013-09-20 03:24:00,55.6,52.1,29.89,NW,316,4.0,9.0,88,0.00,,,-99.99,Weather View 32 v70,2013-09-20 08:24:00,
2013-09-20 03:34:00,55.4,51.6,29.89,NW,313,5.0,9.0,87,0.00,,,-99.99,Weather View 32 v70,2013-09-20 08:34:00,
2013-09-20 03:39:00,55.2,51.4,29.89,WNW,301,4.0,9.0,87,0.00,,,-99.99,Weather View 32 v70,2013-09-20 08:39:00,
2013-09-20 03:44:00,55.2,51.4,29.89,WNW,302,2.0,9.0,87,0.00,,,-99.99,Weather View 32 v70,2013-09-20 08:44:00,
2013-09-20 03:54:00,55.0,50.9,29.89,NW,308,6.0,8.0,86,0.00,,,-99.99,Weather View 32 v70,2013-09-20 08:54:00,
2013-09-20 04:04:00,54.9,50.4,29.89,NNW,344,5.0,8.0,85,0.00,,,-99.99,Weather View 32 v70,2013-09-20 09:04:00,
2013-09-20 04:09:00,54.7,50.2,29.89,NW,322,6.0,8.0,85,0.00,,,-99.99,Weather View 32 v70,2013-09-20 09:09:00,
2013-09-20 04:19:00,54.7,49.9,29.89,NW,312,8.0,8.0,84,0.00,,,-99.99,Weather View 32 v70,2013-09-20 09:19:00,
2013-09-20 04:29:00,54.7,49.3,29.89,NNW,331,2.0,8.0,82,0.00,,,-99.99,Weather View 32 v70,2013-09-20 09:29:00,
2013-09-20 04:34:00,54.5,48.8,29.89,NNW,328,3.0,8.0,81,0.00,,,-99.99,Weather View 32 v70,2013-09-20 09:34:00,
2013-09-20 04:44:00,54.5,48.4,29.89,NW,326,8.0,8.0,80,0.00,,,-99.99,Weather View 32 v70,2013-09-20 09:44:00,
2013-09-20 04:54:00,54.5,48.1,29.89,NW,317,3.0,8.0,79,0.00,,,-99.99,Weather View 32 v70,2013-09-20 09:54:00,
2013-09-20 04:59:00,54.5,47.8,29.89,NNW,328,6.0,8.0,78,0.00,,,-99.99,Weather View 32 v70,2013-09-20 09:59:00,
2013-09-20 05:09:00,54.3,47.6,29.89,NW,312,3.0,8.0,78,0.00,,,-99.99,Weather View 32 v70,2013-09-20 10:09:00,
2013-09-20 05:14:00,54.3,47.9,29.89,NW,312,3.0,8.0,79,0.00,,,-99.99,Weather View 32 v70,2013-09-20 10:14:00,
2013-09-20 05:19:00,54.3,47.9,29.89,NW,322,3.0,8.0,79,0.00,,,-99.99,Weather View 32 v70,2013-09-20 10:19:00,
2013-09-20 05:24:00,54.3,48.3,29.89,NW,324,4.0,8.0,80,0.00,,,-99.99,Weather View 32 v70,2013-09-20 10:24:00,
2013-09-20 05:30:00,54.3,48.3,29.89,WNW,299,0.0,8.0,80,0.00,,,-99.99,Weather View 32 v70,2013-09-20 10:30:00,
2013-09-20 05:35:00,54.5,48.4,29.89,NW,326,0.0,8.0,80,0.00,,,-99.99,Weather View 32 v70,2013-09-20 10:35:00,
2013-09-20 05:44:00,54.5,48.4,29.89,WNW,303,4.0,8.0,80,0.00,,,-99.99,Weather View 32 v70,2013-09-20 10:44:00,
2013-09-20 05:49:00,54.5,48.8,29.89,WNW,297,4.0,8.0,81,0.00,,,-99.99,Weather View 32 v70,2013-09-20 10:49:00,
2013-09-20 06:00:00,54.5,48.8,29.89,WNW,295,0.0,6.0,81,0.00,,,-99.99,Weather View 32 v70,2013-09-20 11:00:00,
2013-09-20 06:09:00,54.3,48.6,29.89,NW,310,3.0,6.0,81,0.00,,,-99.99,Weather View 32 v70,2013-09-20 11:09:00,
2013-09-20 06:14:00,54.3,48.6,29.89,NW,310,4.0,6.0,81,0.00,,,-99.99,Weather View 32 v70,2013-09-20 11:14:00,
2013-09-20 06:19:00,54.1,48.4,29.89,NW,304,2.0,6.0,81,0.00,,,-99.99,Weather View 32 v70,2013-09-20 11:19:00,
2013-09-20 06:29:00,54.1,48.8,29.89,WNW,301,3.0,6.0,82,0.00,,,-99.99,Weather View 32 v70,2013-09-20 11:29:00,
2013-09-20 06:34:00,54.3,48.9,29.89,WNW,299,4.0,6.0,82,0.00,,,-99.99,Weather View 32 v70,2013-09-20 11:34:00,
2013-09-20 06:39:00,54.5,49.1,29.89,WNW,288,4.0,6.0,82,0.00,,,-99.99,Weather View 32 v70,2013-09-20 11:39:00,
2013-09-20 06:49:00,54.7,49.6,29.89,WNW,287,3.0,5.0,83,0.00,,,-99.99,Weather View 32 v70,2013-09-20 11:49:00,
2013-09-20 06:59:00,54.9,49.8,29.92,West,281,3.0,5.0,83,0.00,,,-99.99,Weather View 32 v70,2013-09-20 11:59:00,
2013-09-20 07:09:00,54.9,49.8,29.92,West,268,2.0,6.0,83,0.00,,,-99.99,Weather View 32 v70,2013-09-20 12:09:00,
2013-09-20 07:14:00,54.7,49.9,29.92,West,281,3.0,6.0,84,0.00,,,-99.99,Weather View 32 v70,2013-09-20 12:14:00,
2013-09-20 07:19:00,54.7,49.9,29.92,West,278,4.0,6.0,84,0.00,,,-99.99,Weather View 32 v70,2013-09-20 12:19:00,
2013-09-20 07:29:00,54.7,49.9,29.92,West,276,4.0,6.0,84,0.00,,,-99.99,Weather View 32 v70,2013-09-20 12:29:00,
2013-09-20 07:34:00,54.7,49.9,29.92,West,281,4.0,6.0,84,0.00,,,-99.99,Weather View 32 v70,2013-09-20 12:34:00,
2013-09-20 07:44:00,54.5,49.8,29.92,WNW,299,5.0,6.0,84,0.00,,,-99.99,Weather View 32 v70,2013-09-20 12:44:00,
2013-09-20 07:49:00,54.5,50.1,29.92,West,275,3.0,9.0,85,0.00,,,-99.99,Weather View 32 v70,2013-09-20 12:49:00,
2013-09-20 07:59:00,54.5,50.1,29.92,NW,309,3.0,9.0,85,0.00,,,-99.99,Weather View 32 v70,2013-09-20 12:59:00,
2013-09-20 08:09:00,54.3,49.9,29.92,WNW,303,4.0,9.0,85,0.00,,,-99.99,Weather View 32 v70,2013-09-20 13:09:00,
2013-09-20 08:14:00,54.1,49.7,29.92,WNW,287,4.0,9.0,85,0.00,,,-99.99,Weather View 32 v70,2013-09-20 13:14:00,
2013-09-20 08:24:00,54.1,49.7,29.92,West,280,4.0,9.0,85,0.00,,,-99.99,Weather View 32 v70,2013-09-20 13:24:00,
2013-09-20 08:30:00,54.3,50.2,29.92,West,281,4.0,9.0,86,0.00,,,-99.99,Weather View 32 v70,2013-09-20 13:30:00,
2013-09-20 08:35:00,54.1,50.0,29.92,West,270,4.0,9.0,86,0.00,,,-99.99,Weather View 32 v70,2013-09-20 13:35:00,
2013-09-20 08:40:00,54.1,50.0,29.92,West,276,3.0,9.0,86,0.00,,,-99.99,Weather View 32 v70,2013-09-20 13:40:00,
2013-09-20 08:49:00,54.1,50.0,29.92,WNW,293,4.0,9.0,86,0.00,,,-99.99,Weather View 32 v70,2013-09-20 13:49:00,
2013-09-20 08:59:00,54.0,50.2,29.92,West,272,5.0,8.0,87,0.00,,,-99.99,Weather View 32 v70,2013-09-20 13:59:00,
2013-09-20 09:09:00,54.0,50.2,29.92,West,269,4.0,8.0,87,0.00,,,-99.99,Weather View 32 v70,2013-09-20 14:09:00,
2013-09-20 09:19:00,54.1,50.3,29.92,WNW,284,3.0,8.0,87,0.00,,,-99.99,Weather View 32 v70,2013-09-20 14:19:00,
2013-09-20 09:24:00,54.1,50.3,29.92,West,274,3.0,8.0,87,0.00,,,-99.99,Weather View 32 v70,2013-09-20 14:24:00,
2013-09-20 09:34:00,54.0,50.5,29.92,West,281,6.0,8.0,88,0.00,,,-99.99,Weather View 32 v70,2013-09-20 14:34:00,
2013-09-20 09:39:00,54.0,50.5,29.92,WNW,285,3.0,8.0,88,0.00,,,-99.99,Weather View 32 v70,2013-09-20 14:39:00,
2013-09-20 09:49:00,54.0,50.5,29.92,WNW,288,3.0,6.0,88,0.00,,,-99.99,Weather View 32 v70,2013-09-20 14:49:00,
2013-09-20 09:54:00,54.0,50.5,29.92,WNW,283,8.0,8.0,88,0.00,,,-99.99,Weather View 32 v70,2013-09-20 14:54:00,
2013-09-20 10:02:00,54.0,50.5,29.92,WNW,295,5.0,8.0,88,0.00,,,-99.99,Weather View 32 v70,2013-09-20 15:02:00,
2013-09-20 10:09:00,54.1,50.7,29.92,WNW,290,4.0,8.0,88,0.00,,,-99.99,Weather View 32 v70,2013-09-20 15:09:00,
2013-09-20 10:14:00,54.3,51.1,29.92,NW,308,3.0,8.0,89,0.00,,,-99.99,Weather View 32 v70,2013-09-20 15:14:00,
2013-09-20 10:19:00,54.3,51.1,29.92,WSW,251,6.0,8.0,89,0.00,,,-99.99,Weather View 32 v70,2013-09-20 15:19:00,
2013-09-20 10:29:00,54.1,51.0,29.94,NW,326,5.0,8.0,89,0.00,,,-99.99,Weather View 32 v70,2013-09-20 15:29:00,
2013-09-20 10:39:00,54.0,50.8,29.94,WNW,287,3.0,8.0,89,0.00,,,-99.99,Weather View 32 v70,2013-09-20 15:39:00,
2013-09-20 10:49:00,54.1,51.0,29.94,West,273,3.0,8.0,89,0.00,,,-99.99,Weather View 32 v70,2013-09-20 15:49:00,
2013-09-20 10:59:00,54.3,51.1,29.94,WNW,284,4.0,8.0,89,0.00,,,-99.99,Weather View 32 v70,2013-09-20 15:59:00,
2013-09-20 11:09:00,54.7,51.8,29.94,West,274,3.0,8.0,90,0.00,,,-99.99,Weather View 32 v70,2013-09-20 16:09:00,
2013-09-20 11:19:00,55.2,52.3,29.94,WNW,293,3.0,8.0,90,0.00,,,-99.99,Weather View 32 v70,2013-09-20 16:19:00,
2013-09-20 11:30:00,55.8,52.9,29.94,West,271,4.0,7.0,90,0.00,,,-99.99,Weather View 32 v70,2013-09-20 16:30:00,
2013-09-20 11:35:00,55.8,52.9,29.94,West,280,5.0,8.0,90,0.00,,,-99.99,Weather View 32 v70,2013-09-20 16:35:00,
2013-09-20 11:45:00,56.1,52.9,29.94,WNW,289,4.0,8.0,89,0.00,,,-99.99,Weather View 32 v70,2013-09-20 16:45:00,
2013-09-20 11:50:00,56.3,53.1,29.94,WNW,286,4.0,8.0,89,0.00,,,-99.99,Weather View 32 v70,2013-09-20 16:50:00,
2013-09-20 11:59:00,56.5,52.3,29.94,WNW,293,5.0,8.0,86,0.00,,,-99.99,Weather View 32 v70,2013-09-20 16:59:00,
2013-09-20 12:09:00,56.8,51.7,29.94,WNW,298,4.0,8.0,83,0.00,,,-99.99,Weather View 32 v70,2013-09-20 17:09:00,
2013-09-20 12:14:00,57.4,51.9,29.92,WNW,295,10.0,10.0,82,0.00,,,-99.99,Weather View 32 v70,2013-09-20 17:14:00,
2013-09-20 12:24:00,57.7,49.1,29.92,WNW,294,6.0,10.0,73,0.00,,,-99.99,Weather View 32 v70,2013-09-20 17:24:00,
2013-09-20 12:29:00,58.1,48.7,29.92,West,276,3.0,10.0,71,0.00,,,-99.99,Weather View 32 v70,2013-09-20 17:29:00,
2013-09-20 12:39:00,58.3,47.3,29.92,NW,310,6.0,10.0,67,0.00,,,-99.99,Weather View 32 v70,2013-09-20 17:39:00,
2013-09-20 12:49:00,58.1,45.1,29.92,WSW,244,5.0,10.0,62,0.00,,,-99.99,Weather View 32 v70,2013-09-20 17:49:00,
2013-09-20 12:54:00,58.1,44.7,29.92,WNW,291,3.0,10.0,61,0.00,,,-99.99,Weather View 32 v70,2013-09-20 17:54:00,
2013-09-20 13:04:00,58.1,43.4,29.92,NNW,327,6.0,10.0,58,0.00,,,-99.99,Weather View 32 v70,2013-09-20 18:04:00,
2013-09-20 13:09:00,58.5,43.2,29.92,NW,308,3.0,10.0,57,0.00,,,-99.99,Weather View 32 v70,2013-09-20 18:09:00,
2013-09-20 13:19:00,58.8,42.7,29.92,NNW,333,6.0,9.0,55,0.00,,,-99.99,Weather View 32 v70,2013-09-20 18:19:00,
2013-09-20 13:29:00,57.6,41.0,29.92,West,273,6.0,8.0,54,0.00,,,-99.99,Weather View 32 v70,2013-09-20 18:29:00,
2013-09-20 13:34:00,57.2,41.1,29.92,WNW,300,3.0,8.0,55,0.00,,,-99.99,Weather View 32 v70,2013-09-20 18:34:00,
2013-09-20 13:44:00,56.7,41.1,29.92,NNW,328,7.0,8.0,56,0.00,,,-99.99,Weather View 32 v70,2013-09-20 18:44:00,
2013-09-20 13:49:00,56.7,42.0,29.92,NNW,330,0.0,10.0,58,0.00,,,-99.99,Weather View 32 v70,2013-09-20 18:49:00,
2013-09-20 13:59:00,56.8,42.6,29.92,NNW,327,3.0,10.0,59,0.00,,,-99.99,Weather View 32 v70,2013-09-20 18:59:00,
2013-09-20 14:04:00,57.4,43.6,29.92,NNW,344,6.0,10.0,60,0.00,,,-99.99,Weather View 32 v70,2013-09-20 19:04:00,
2013-09-20 14:14:00,59.2,44.8,29.92,NW,323,0.0,10.0,59,0.00,,,-99.99,Weather View 32 v70,2013-09-20 19:14:00,
2013-09-20 14:25:00,60.6,42.3,29.92,NW,305,3.0,10.0,51,0.00,,,-99.99,Weather View 32 v70,2013-09-20 19:25:00,
2013-09-20 14:30:00,60.1,41.3,29.92,NNW,329,6.0,11.0,50,0.00,,,-99.99,Weather View 32 v70,2013-09-20 19:30:00,
2013-09-20 14:35:00,59.5,40.8,29.92,NW,311,5.0,11.0,50,0.00,,,-99.99,Weather View 32 v70,2013-09-20 19:35:00,
2013-09-20 14:45:00,59.7,42.0,29.92,NW,311,3.0,11.0,52,0.00,,,-99.99,Weather View 32 v70,2013-09-20 19:45:00,
2013-09-20 14:54:00,60.1,39.7,29.92,NW,321,4.0,11.0,47,0.00,,,-99.99,Weather View 32 v70,2013-09-20 19:54:00,
2013-09-20 14:59:00,59.9,40.6,29.92,NW,323,3.0,11.0,49,0.00,,,-99.99,Weather View 32 v70,2013-09-20 19:59:00,
2013-09-20 15:05:00,60.1,41.9,29.92,NNW,336,3.0,11.0,51,0.00,,,-99.99,Weather View 32 v70,2013-09-20 20:05:00,
2013-09-20 15:14:00,60.4,42.2,29.92,NW,312,3.0,11.0,51,0.00,,,-99.99,Weather View 32 v70,2013-09-20 20:14:00,
2013-09-20 15:24:00,60.8,40.9,29.92,NW,312,6.0,11.0,48,0.00,,,-99.99,Weather View 32 v70,2013-09-20 20:24:00,
2013-09-20 15:34:00,59.9,41.7,29.92,North,353,3.0,11.0,51,0.00,,,-99.99,Weather View 32 v70,2013-09-20 20:34:00,
2013-09-20 15:39:00,59.7,42.0,29.92,NNE,14,0.0,11.0,52,0.00,,,-99.99,Weather View 32 v70,2013-09-20 20:39:00,
2013-09-20 15:44:00,59.7,42.5,29.92,North,0,4.0,11.0,53,0.00,,,-99.99,Weather View 32 v70,2013-09-20 20:44:00,
2013-09-20 15:54:00,59.7,41.5,29.92,NNW,345,0.0,11.0,51,0.00,,,-99.99,Weather View 32 v70,2013-09-20 20:54:00,
2013-09-20 16:04:00,59.7,41.5,29.92,NNW,331,8.0,11.0,51,0.00,,,-99.99,Weather View 32 v70,2013-09-20 21:04:00,
2013-09-20 16:14:00,59.9,40.6,29.92,West,260,6.0,11.0,49,0.00,,,-99.99,Weather View 32 v70,2013-09-20 21:14:00,
2013-09-20 16:19:00,59.9,40.1,29.92,WNW,284,4.0,11.0,48,0.00,,,-99.99,Weather View 32 v70,2013-09-20 21:19:00,
2013-09-20 16:29:00,59.9,39.0,29.92,NW,313,4.0,11.0,46,0.00,,,-99.99,Weather View 32 v70,2013-09-20 21:29:00,
2013-09-20 16:34:00,59.7,38.9,29.92,NW,324,6.0,10.0,46,0.00,,,-99.99,Weather View 32 v70,2013-09-20 21:34:00,
2013-09-20 16:44:00,59.5,38.1,29.92,NW,308,4.0,10.0,45,0.00,,,-99.99,Weather View 32 v70,2013-09-20 21:44:00,
2013-09-20 16:54:00,59.5,38.7,29.92,NNW,340,5.0,10.0,46,0.00,,,-99.99,Weather View 32 v70,2013-09-20 21:54:00,
2013-09-20 17:04:00,59.5,38.1,29.92,WNW,282,4.0,10.0,45,0.00,,,-99.99,Weather View 32 v70,2013-09-20 22:04:00,
2013-09-20 17:14:00,59.7,38.3,29.92,WNW,303,5.0,10.0,45,0.00,,,-99.99,Weather View 32 v70,2013-09-20 22:14:00,
2013-09-20 17:19:00,59.7,38.3,29.92,NNW,327,2.0,10.0,45,0.00,,,-99.99,Weather View 32 v70,2013-09-20 22:19:00,
2013-09-20 17:25:00,59.4,38.0,29.92,NW,318,6.0,10.0,45,0.00,,,-99.99,Weather View 32 v70,2013-09-20 22:25:00,
2013-09-20 17:35:00,59.0,37.6,29.92,WNW,291,5.0,9.0,45,0.00,,,-99.99,Weather View 32 v70,2013-09-20 22:35:00,
2013-09-20 17:40:00,59.0,37.1,29.92,West,277,5.0,9.0,44,0.00,,,-99.99,Weather View 32 v70,2013-09-20 22:40:00,
2013-09-20 17:49:00,59.9,37.9,29.92,NW,306,6.0,9.0,44,0.00,,,-99.99,Weather View 32 v70,2013-09-20 22:49:00,
2013-09-20 17:59:00,60.1,36.3,29.92,WNW,289,3.0,10.0,41,0.00,,,-99.99,Weather View 32 v70,2013-09-20 22:59:00,
2013-09-20 18:04:00,59.9,36.1,29.92,WNW,288,3.0,10.0,41,0.00,,,-99.99,Weather View 32 v70,2013-09-20 23:04:00,
2013-09-20 18:14:00,59.7,35.9,29.92,WNW,292,4.0,10.0,41,0.00,,,-99.99,Weather View 32 v70,2013-09-20 23:14:00,
2013-09-20 18:24:00,59.5,36.4,29.92,West,273,2.0,10.0,42,0.00,,,-99.99,Weather View 32 v70,2013-09-20 23:24:00,
2013-09-20 18:29:00,59.5,36.4,29.92,NW,321,4.0,10.0,42,0.00,,,-99.99,Weather View 32 v70,2013-09-20 23:29:00,
2013-09-20 18:39:00,59.2,35.4,29.92,WNW,290,4.0,10.0,41,0.00,,,-99.99,Weather View 32 v70,2013-09-20 23:39:00,
2013-09-20 18:44:00,59.0,35.3,29.92,WNW,291,3.0,10.0,41,0.00,,,-99.99,Weather View 32 v70,2013-09-20 23:44:00,
2013-09-20 18:54:00,58.5,36.6,29.92,NW,304,4.0,10.0,44,0.00,,,-99.99,Weather View 32 v70,2013-09-20 23:54:00,
2013-09-20 18:59:00,58.3,37.0,29.92,NW,307,4.0,9.0,45,0.00,,,-99.99,Weather View 32 v70,2013-09-20 23:59:00,
2013-09-20 19:07:00,57.9,36.7,29.92,NW,316,3.0,9.0,45,0.00,,,-99.99,Weather View 32 v70,2013-09-21 00:07:00,
2013-09-20 19:14:00,57.6,36.9,29.92,NW,310,4.0,8.0,46,0.00,,,-99.99,Weather View 32 v70,2013-09-21 00:14:00,
2013-09-20 19:19:00,57.4,36.7,29.92,NW,311,4.0,8.0,46,0.00,,,-99.99,Weather View 32 v70,2013-09-21 00:19:00,
2013-09-20 19:24:00,57.0,36.9,29.92,NW,311,0.0,8.0,47,0.00,,,-99.99,Weather View 32 v70,2013-09-21 00:24:00,
2013-09-20 19:34:00,56.3,36.8,29.92,WNW,302,2.0,8.0,48,0.00,,,-99.99,Weather View 32 v70,2013-09-21 00:34:00,
2013-09-20 19:44:00,55.9,36.5,29.92,NW,324,3.0,8.0,48,0.00,,,-99.99,Weather View 32 v70,2013-09-21 00:44:00,
2013-09-20 19:49:00,55.8,36.8,29.92,NW,324,3.0,8.0,49,0.00,,,-99.99,Weather View 32 v70,2013-09-21 00:49:00,
2013-09-20 19:59:00,55.2,36.4,29.92,NW,326,3.0,8.0,49,0.00,,,-99.99,Weather View 32 v70,2013-09-21 00:59:00,
2013-09-20 20:04:00,55.0,36.7,29.92,WNW,294,4.0,8.0,50,0.00,,,-99.99,Weather View 32 v70,2013-09-21 01:04:00,
2013-09-20 20:14:00,54.9,36.5,29.92,NW,312,0.0,7.0,50,0.00,,,-99.99,Weather View 32 v70,2013-09-21 01:14:00,
2013-09-20 20:19:00,54.9,36.5,29.92,NW,313,2.0,7.0,50,0.00,,,-99.99,Weather View 32 v70,2013-09-21 01:19:00,
2013-09-20 20:25:00,54.7,36.4,29.92,NW,313,3.0,7.0,50,0.00,,,-99.99,Weather View 32 v70,2013-09-21 01:25:00,
2013-09-20 20:35:00,54.5,36.2,29.92,NNW,336,0.0,7.0,50,0.00,,,-99.99,Weather View 32 v70,2013-09-21 01:35:00,
2013-09-20 20:44:00,54.1,35.9,29.94,NW,324,0.0,5.0,50,0.00,,,-99.99,Weather View 32 v70,2013-09-21 01:44:00,
2013-09-20 20:49:00,53.8,36.0,29.94,NW,324,0.0,5.0,51,0.00,,,-99.99,Weather View 32 v70,2013-09-21 01:49:00,
2013-09-20 20:59:00,53.1,35.9,29.94,NW,324,0.0,5.0,52,0.00,,,-99.99,Weather View 32 v70,2013-09-21 01:59:00,
2013-09-20 21:08:00,52.9,35.7,29.94,NW,324,0.0,5.0,52,0.00,,,-99.99,Weather View 32 v70,2013-09-21 02:08:00,
2013-09-20 21:14:00,52.3,35.7,29.94,NW,324,3.0,5.0,53,0.00,,,-99.99,Weather View 32 v70,2013-09-21 02:14:00,
2013-09-20 21:24:00,52.0,35.8,29.94,NW,324,0.0,5.0,54,0.00,,,-99.99,Weather View 32 v70,2013-09-21 02:24:00,
2013-09-20 21:29:00,52.0,35.8,29.94,NNW,327,2.0,5.0,54,0.00,,,-99.99,Weather View 32 v70,2013-09-21 02:29:00,
2013-09-20 21:34:00,51.8,36.1,29.94,NNW,327,0.0,4.0,55,0.00,,,-99.99,Weather View 32 v70,2013-09-21 02:34:00,
2013-09-20 21:44:00,51.6,36.4,29.94,NNW,327,0.0,4.0,56,0.00,,,-99.99,Weather View 32 v70,2013-09-21 02:44:00,
2013-09-20 21:49:00,51.6,36.4,29.94,NNW,327,0.0,4.0,56,0.00,,,-99.99,Weather View 32 v70,2013-09-21 02:49:00,
2013-09-20 21:59:00,51.3,36.1,29.94,NNW,327,0.0,3.0,56,0.00,,,-99.99,Weather View 32 v70,2013-09-21 02:59:00,
2013-09-20 22:04:00,50.9,35.7,29.94,NNW,327,0.0,3.0,56,0.00,,,-99.99,Weather View 32 v70,2013-09-21 03:04:00,
2013-09-20 22:14:00,50.2,35.5,29.94,NNW,327,0.0,3.0,57,0.00,,,-99.99,Weather View 32 v70,2013-09-21 03:14:00,
2013-09-20 22:19:00,49.8,35.2,29.94,NNW,327,0.0,2.0,57,0.00,,,-99.99,Weather View 32 v70,2013-09-21 03:19:00,
2013-09-20 22:24:00,49.6,35.4,29.94,NNW,327,0.0,2.0,58,0.00,,,-99.99,Weather View 32 v70,2013-09-21 03:24:00,
2013-09-20 22:34:00,49.1,35.4,29.94,NNW,327,0.0,0.0,59,0.00,,,-99.99,Weather View 32 v70,2013-09-21 03:34:00,
2013-09-20 22:44:00,48.7,35.0,29.94,NNW,327,0.0,0.0,59,0.00,,,-99.99,Weather View 32 v70,2013-09-21 03:44:00,
2013-09-20 22:54:00,48.6,35.3,29.94,NNW,327,0.0,0.0,60,0.00,,,-99.99,Weather View 32 v70,2013-09-21 03:54:00,
2013-09-20 23:04:00,48.0,35.2,29.94,NNW,327,0.0,0.0,61,0.00,,,-99.99,Weather View 32 v70,2013-09-21 04:04:00,
2013-09-20 23:09:00,47.8,35.4,29.94,NNW,327,0.0,0.0,62,0.00,,,-99.99,Weather View 32 v70,2013-09-21 04:09:00,
2013-09-20 23:14:00,47.8,35.4,29.94,NNW,327,0.0,0.0,62,0.00,,,-99.99,Weather View 32 v70,2013-09-21 04:14:00,
2013-09-20 23:19:00,47.7,35.7,29.94,NNW,327,0.0,0.0,63,0.00,,,-99.99,Weather View 32 v70,2013-09-21 04:19:00,
2013-09-20 23:20:00,47.7,35.7,29.94,NNW,327,0.0,0.0,63,0.00,,,-99.99,Weather View 32 v70,2013-09-21 04:20:00,
2013-09-20 23:30:00,47.7,36.1,29.94,NNW,327,0.0,0.0,64,0.00,,,-99.99,Weather View 32 v70,2013-09-21 04:30:00,
2013-09-20 23:35:00,47.7,36.5,29.94,NNW,327,0.0,0.0,65,0.00,,,-99.99,Weather View 32 v70,2013-09-21 04:35:00,
2013-09-20 23:44:00,47.8,37.0,29.97,NNW,327,0.0,0.0,66,0.00,,,-99.99,Weather View 32 v70,2013-09-21 04:44:00,
2013-09-20 23:49:00,48.0,37.6,29.97,NNW,327,0.0,0.0,67,0.00,,,-99.99,Weather View 32 v70,2013-09-21 04:49:00,
2013-09-20 23:54:00,48.0,37.6,29.97,NNW,327,0.0,0.0,67,0.00,,,-99.99,Weather View 32 v70,2013-09-21 04:54:00,